sensor_id;sensor_type;location;lat;lon;timestamp;temperature;humidity
423;DHT22;198;48.752;9.180;2023-04-24T00:00:54;10.50;99.90
423;DHT22;198;48.752;9.180;2023-04-24T00:03:22;10.50;99.90
423;DHT22;198;48.752;9.180;2023-04-24T00:05:48;10.50;99.90
423;DHT22;198;48.752;9.180;2023-04-24T00:08:13;10.50;99.90
423;DHT22;198;48.752;9.180;2023-04-24T00:10:39;10.50;99.90
423;DHT22;198;48.752;9.180;2023-04-24T00:13:04;10.50;99.90
423;DHT22;198;48.752;9.180;2023-04-24T00:15:30;10.50;99.90
423;DHT22;198;48.752;9.180;2023-04-24T00:17:56;10.50;99.90
423;DHT22;198;48.752;9.180;2023-04-24T00:20:21;10.50;99.90
423;DHT22;198;48.752;9.180;2023-04-24T00:22:47;10.50;99.90
423;DHT22;198;48.752;9.180;2023-04-24T00:25:13;10.50;99.90
423;DHT22;198;48.752;9.180;2023-04-24T00:27:38;10.50;99.90
423;DHT22;198;48.752;9.180;2023-04-24T00:30:04;10.60;99.90
423;DHT22;198;48.752;9.180;2023-04-24T00:32:30;10.50;99.90
423;DHT22;198;48.752;9.180;2023-04-24T00:34:56;10.60;99.90
423;DHT22;198;48.752;9.180;2023-04-24T00:37:21;10.60;99.90
423;DHT22;198;48.752;9.180;2023-04-24T00:39:47;10.70;99.90
423;DHT22;198;48.752;9.180;2023-04-24T00:42:12;10.70;99.90
423;DHT22;198;48.752;9.180;2023-04-24T00:44:38;10.70;99.90
423;DHT22;198;48.752;9.180;2023-04-24T00:47:04;10.60;99.90
423;DHT22;198;48.752;9.180;2023-04-24T00:49:30;10.70;99.90
423;DHT22;198;48.752;9.180;2023-04-24T00:51:55;10.70;99.90
423;DHT22;198;48.752;9.180;2023-04-24T00:54:22;10.70;99.90
423;DHT22;198;48.752;9.180;2023-04-24T00:56:47;10.80;99.90
423;DHT22;198;48.752;9.180;2023-04-24T00:59:16;10.80;99.90
423;DHT22;198;48.752;9.180;2023-04-24T01:01:42;10.80;99.90
423;DHT22;198;48.752;9.180;2023-04-24T01:04:09;10.80;99.90
423;DHT22;198;48.752;9.180;2023-04-24T01:06:38;10.90;99.90
423;DHT22;198;48.752;9.180;2023-04-24T01:09:05;11.00;99.90
423;DHT22;198;48.752;9.180;2023-04-24T01:11:31;11.00;99.90
423;DHT22;198;48.752;9.180;2023-04-24T01:13:57;11.00;99.90
423;DHT22;198;48.752;9.180;2023-04-24T01:16:23;11.10;99.90
423;DHT22;198;48.752;9.180;2023-04-24T01:18:49;11.00;99.90
423;DHT22;198;48.752;9.180;2023-04-24T01:21:15;11.00;99.90
423;DHT22;198;48.752;9.180;2023-04-24T01:23:45;11.00;99.90
423;DHT22;198;48.752;9.180;2023-04-24T01:26:12;11.00;99.90
423;DHT22;198;48.752;9.180;2023-04-24T01:28:37;11.10;99.90
423;DHT22;198;48.752;9.180;2023-04-24T01:31:03;11.10;99.90
423;DHT22;198;48.752;9.180;2023-04-24T01:33:28;11.10;99.90
423;DHT22;198;48.752;9.180;2023-04-24T01:35:54;11.10;99.90
423;DHT22;198;48.752;9.180;2023-04-24T01:38:20;11.10;99.90
423;DHT22;198;48.752;9.180;2023-04-24T01:40:46;11.10;99.90
423;DHT22;198;48.752;9.180;2023-04-24T01:43:12;11.00;99.90
423;DHT22;198;48.752;9.180;2023-04-24T01:45:38;11.00;99.90
423;DHT22;198;48.752;9.180;2023-04-24T01:48:03;11.00;99.90
423;DHT22;198;48.752;9.180;2023-04-24T01:50:29;11.00;99.90
423;DHT22;198;48.752;9.180;2023-04-24T01:52:55;11.10;99.90
423;DHT22;198;48.752;9.180;2023-04-24T01:55:21;11.10;99.90
423;DHT22;198;48.752;9.180;2023-04-24T01:57:46;11.20;99.90
423;DHT22;198;48.752;9.180;2023-04-24T02:00:12;11.20;99.90
423;DHT22;198;48.752;9.180;2023-04-24T02:02:39;11.20;99.90
423;DHT22;198;48.752;9.180;2023-04-24T02:05:06;11.20;99.90
423;DHT22;198;48.752;9.180;2023-04-24T02:07:32;11.10;99.90
423;DHT22;198;48.752;9.180;2023-04-24T02:09:58;11.10;99.90
423;DHT22;198;48.752;9.180;2023-04-24T02:12:23;11.20;99.90
423;DHT22;198;48.752;9.180;2023-04-24T02:14:49;11.10;99.90
423;DHT22;198;48.752;9.180;2023-04-24T02:17:15;11.20;99.90
423;DHT22;198;48.752;9.180;2023-04-24T02:19:41;11.20;99.90
423;DHT22;198;48.752;9.180;2023-04-24T02:22:06;11.20;99.90
423;DHT22;198;48.752;9.180;2023-04-24T02:24:32;11.20;99.90
423;DHT22;198;48.752;9.180;2023-04-24T02:26:58;11.20;99.90
423;DHT22;198;48.752;9.180;2023-04-24T02:29:23;11.10;99.90
423;DHT22;198;48.752;9.180;2023-04-24T02:31:49;11.00;99.90
423;DHT22;198;48.752;9.180;2023-04-24T02:34:14;11.00;99.90
423;DHT22;198;48.752;9.180;2023-04-24T02:36:40;11.00;99.90
423;DHT22;198;48.752;9.180;2023-04-24T02:39:05;11.00;99.90
423;DHT22;198;48.752;9.180;2023-04-24T02:41:31;11.00;99.90
423;DHT22;198;48.752;9.180;2023-04-24T02:44:00;11.00;99.90
423;DHT22;198;48.752;9.180;2023-04-24T02:46:26;11.00;99.90
423;DHT22;198;48.752;9.180;2023-04-24T02:48:52;10.90;99.90
423;DHT22;198;48.752;9.180;2023-04-24T02:51:17;10.90;99.90
423;DHT22;198;48.752;9.180;2023-04-24T02:53:43;10.90;99.90
423;DHT22;198;48.752;9.180;2023-04-24T02:56:08;10.90;99.90
423;DHT22;198;48.752;9.180;2023-04-24T02:58:34;10.90;99.90
423;DHT22;198;48.752;9.180;2023-04-24T03:01:00;11.00;99.90
423;DHT22;198;48.752;9.180;2023-04-24T03:03:26;11.00;99.90
423;DHT22;198;48.752;9.180;2023-04-24T03:05:51;11.00;99.90
423;DHT22;198;48.752;9.180;2023-04-24T03:08:17;11.10;99.90
423;DHT22;198;48.752;9.180;2023-04-24T03:10:43;11.10;99.90
423;DHT22;198;48.752;9.180;2023-04-24T03:13:08;11.10;99.90
423;DHT22;198;48.752;9.180;2023-04-24T03:15:34;11.10;99.90
423;DHT22;198;48.752;9.180;2023-04-24T03:17:59;11.10;99.90
423;DHT22;198;48.752;9.180;2023-04-24T03:20:26;11.10;99.90
423;DHT22;198;48.752;9.180;2023-04-24T03:22:51;11.00;99.90
423;DHT22;198;48.752;9.180;2023-04-24T03:25:17;11.00;99.90
423;DHT22;198;48.752;9.180;2023-04-24T03:27:42;10.90;99.90
423;DHT22;198;48.752;9.180;2023-04-24T03:30:08;10.80;99.90
423;DHT22;198;48.752;9.180;2023-04-24T03:32:33;10.80;99.90
423;DHT22;198;48.752;9.180;2023-04-24T03:34:59;10.80;99.90
423;DHT22;198;48.752;9.180;2023-04-24T03:37:26;10.70;99.90
423;DHT22;198;48.752;9.180;2023-04-24T03:39:52;10.70;99.90
423;DHT22;198;48.752;9.180;2023-04-24T03:42:17;10.70;99.90
423;DHT22;198;48.752;9.180;2023-04-24T03:44:43;10.60;99.90
423;DHT22;198;48.752;9.180;2023-04-24T03:47:08;10.70;99.90
423;DHT22;198;48.752;9.180;2023-04-24T03:49:34;10.60;99.90
423;DHT22;198;48.752;9.180;2023-04-24T03:51:59;10.60;99.90
423;DHT22;198;48.752;9.180;2023-04-24T03:54:25;10.60;99.90
423;DHT22;198;48.752;9.180;2023-04-24T03:56:51;10.60;99.90
423;DHT22;198;48.752;9.180;2023-04-24T03:59:16;10.60;99.90
423;DHT22;198;48.752;9.180;2023-04-24T04:01:42;10.50;99.90
423;DHT22;198;48.752;9.180;2023-04-24T04:04:07;10.40;99.90
423;DHT22;198;48.752;9.180;2023-04-24T04:06:33;10.40;99.90
423;DHT22;198;48.752;9.180;2023-04-24T04:08:59;10.40;99.90
423;DHT22;198;48.752;9.180;2023-04-24T04:11:25;10.40;99.90
423;DHT22;198;48.752;9.180;2023-04-24T04:13:51;10.40;99.90
423;DHT22;198;48.752;9.180;2023-04-24T04:16:16;10.50;99.90
423;DHT22;198;48.752;9.180;2023-04-24T04:18:43;10.50;99.90
423;DHT22;198;48.752;9.180;2023-04-24T04:21:08;10.50;99.90
423;DHT22;198;48.752;9.180;2023-04-24T04:23:34;10.60;99.90
423;DHT22;198;48.752;9.180;2023-04-24T04:25:59;10.60;99.90
423;DHT22;198;48.752;9.180;2023-04-24T04:28:25;10.60;99.90
423;DHT22;198;48.752;9.180;2023-04-24T04:30:51;10.60;99.90
423;DHT22;198;48.752;9.180;2023-04-24T04:33:20;10.50;99.90
423;DHT22;198;48.752;9.180;2023-04-24T04:35:46;10.50;99.90
423;DHT22;198;48.752;9.180;2023-04-24T04:38:14;10.40;99.90
423;DHT22;198;48.752;9.180;2023-04-24T04:40:40;10.30;99.90
423;DHT22;198;48.752;9.180;2023-04-24T04:43:05;10.30;99.90
423;DHT22;198;48.752;9.180;2023-04-24T04:45:31;10.20;99.90
423;DHT22;198;48.752;9.180;2023-04-24T04:47:58;10.10;99.90
423;DHT22;198;48.752;9.180;2023-04-24T04:50:26;10.00;99.90
423;DHT22;198;48.752;9.180;2023-04-24T04:52:52;9.90;99.90
423;DHT22;198;48.752;9.180;2023-04-24T04:55:17;9.80;99.90
423;DHT22;198;48.752;9.180;2023-04-24T04:57:45;9.70;99.90
423;DHT22;198;48.752;9.180;2023-04-24T05:00:11;9.70;99.90
423;DHT22;198;48.752;9.180;2023-04-24T05:02:37;9.60;99.90
423;DHT22;198;48.752;9.180;2023-04-24T05:05:03;9.60;99.90
423;DHT22;198;48.752;9.180;2023-04-24T05:07:29;9.60;99.90
423;DHT22;198;48.752;9.180;2023-04-24T05:09:54;9.60;99.90
423;DHT22;198;48.752;9.180;2023-04-24T05:12:20;9.60;99.90
423;DHT22;198;48.752;9.180;2023-04-24T05:14:45;9.50;99.90
423;DHT22;198;48.752;9.180;2023-04-24T05:17:11;9.50;99.90
423;DHT22;198;48.752;9.180;2023-04-24T05:19:36;9.50;99.90
423;DHT22;198;48.752;9.180;2023-04-24T05:22:03;9.60;99.90
423;DHT22;198;48.752;9.180;2023-04-24T05:24:32;9.60;99.90
423;DHT22;198;48.752;9.180;2023-04-24T05:26:58;9.70;99.90
423;DHT22;198;48.752;9.180;2023-04-24T05:29:24;9.80;99.90
423;DHT22;198;48.752;9.180;2023-04-24T05:31:50;9.80;99.90
423;DHT22;198;48.752;9.180;2023-04-24T05:34:15;9.90;99.90
423;DHT22;198;48.752;9.180;2023-04-24T05:36:42;9.90;99.90
423;DHT22;198;48.752;9.180;2023-04-24T05:39:08;9.80;99.90
423;DHT22;198;48.752;9.180;2023-04-24T05:41:34;9.80;99.90
423;DHT22;198;48.752;9.180;2023-04-24T05:43:59;9.80;99.90
423;DHT22;198;48.752;9.180;2023-04-24T05:46:25;9.90;99.90
423;DHT22;198;48.752;9.180;2023-04-24T05:48:50;9.90;99.90
423;DHT22;198;48.752;9.180;2023-04-24T05:51:16;10.00;99.90
423;DHT22;198;48.752;9.180;2023-04-24T05:53:41;10.00;99.90
423;DHT22;198;48.752;9.180;2023-04-24T05:56:07;9.90;99.90
423;DHT22;198;48.752;9.180;2023-04-24T05:58:32;9.90;99.90
423;DHT22;198;48.752;9.180;2023-04-24T06:00:58;9.90;99.90
423;DHT22;198;48.752;9.180;2023-04-24T06:03:26;9.90;99.90
423;DHT22;198;48.752;9.180;2023-04-24T06:05:52;9.90;99.90
423;DHT22;198;48.752;9.180;2023-04-24T06:08:21;9.90;99.90
423;DHT22;198;48.752;9.180;2023-04-24T06:10:46;9.90;99.90
423;DHT22;198;48.752;9.180;2023-04-24T06:13:12;9.90;99.90
423;DHT22;198;48.752;9.180;2023-04-24T06:15:37;9.90;99.90
423;DHT22;198;48.752;9.180;2023-04-24T06:18:03;9.90;99.90
423;DHT22;198;48.752;9.180;2023-04-24T06:20:29;9.80;99.90
423;DHT22;198;48.752;9.180;2023-04-24T06:22:54;9.80;99.90
423;DHT22;198;48.752;9.180;2023-04-24T06:25:20;9.80;99.90
423;DHT22;198;48.752;9.180;2023-04-24T06:27:46;9.90;99.90
423;DHT22;198;48.752;9.180;2023-04-24T06:30:11;9.90;99.90
423;DHT22;198;48.752;9.180;2023-04-24T06:32:37;10.00;99.90
423;DHT22;198;48.752;9.180;2023-04-24T06:35:03;9.90;99.90
423;DHT22;198;48.752;9.180;2023-04-24T06:37:29;10.00;99.90
423;DHT22;198;48.752;9.180;2023-04-24T06:39:55;10.10;99.90
423;DHT22;198;48.752;9.180;2023-04-24T06:42:20;10.10;99.90
423;DHT22;198;48.752;9.180;2023-04-24T06:44:47;10.30;99.90
423;DHT22;198;48.752;9.180;2023-04-24T06:47:12;10.50;99.90
423;DHT22;198;48.752;9.180;2023-04-24T06:49:41;10.50;99.90
423;DHT22;198;48.752;9.180;2023-04-24T06:52:07;10.70;99.90
423;DHT22;198;48.752;9.180;2023-04-24T06:54:33;10.90;99.90
423;DHT22;198;48.752;9.180;2023-04-24T06:56:59;11.10;99.90
423;DHT22;198;48.752;9.180;2023-04-24T06:59:29;11.30;99.90
423;DHT22;198;48.752;9.180;2023-04-24T07:01:55;11.50;99.90
423;DHT22;198;48.752;9.180;2023-04-24T07:04:20;11.40;99.90
423;DHT22;198;48.752;9.180;2023-04-24T07:06:46;11.70;99.90
423;DHT22;198;48.752;9.180;2023-04-24T07:09:12;11.70;99.90
423;DHT22;198;48.752;9.180;2023-04-24T07:11:39;11.80;99.90
423;DHT22;198;48.752;9.180;2023-04-24T07:14:06;11.90;99.90
423;DHT22;198;48.752;9.180;2023-04-24T07:16:31;12.00;99.90
423;DHT22;198;48.752;9.180;2023-04-24T07:18:57;12.00;99.90
423;DHT22;198;48.752;9.180;2023-04-24T07:21:22;11.80;99.90
423;DHT22;198;48.752;9.180;2023-04-24T07:23:48;11.70;99.90
423;DHT22;198;48.752;9.180;2023-04-24T07:26:13;11.50;99.90
423;DHT22;198;48.752;9.180;2023-04-24T07:28:40;11.10;99.90
423;DHT22;198;48.752;9.180;2023-04-24T07:31:06;10.90;99.90
423;DHT22;198;48.752;9.180;2023-04-24T07:33:31;10.90;99.90
423;DHT22;198;48.752;9.180;2023-04-24T07:35:57;10.90;99.90
423;DHT22;198;48.752;9.180;2023-04-24T07:38:22;11.10;99.90
423;DHT22;198;48.752;9.180;2023-04-24T07:40:48;11.40;99.90
423;DHT22;198;48.752;9.180;2023-04-24T07:43:14;11.50;99.90
423;DHT22;198;48.752;9.180;2023-04-24T07:45:39;11.60;99.90
423;DHT22;198;48.752;9.180;2023-04-24T07:48:06;11.80;99.90
423;DHT22;198;48.752;9.180;2023-04-24T07:50:31;12.20;99.90
423;DHT22;198;48.752;9.180;2023-04-24T07:52:57;12.30;99.90
423;DHT22;198;48.752;9.180;2023-04-24T07:55:23;12.30;99.90
423;DHT22;198;48.752;9.180;2023-04-24T07:57:48;12.10;99.90
423;DHT22;198;48.752;9.180;2023-04-24T08:00:14;11.80;99.90
423;DHT22;198;48.752;9.180;2023-04-24T08:02:40;11.80;99.90
423;DHT22;198;48.752;9.180;2023-04-24T08:05:06;11.90;99.90
423;DHT22;198;48.752;9.180;2023-04-24T08:07:31;11.80;99.90
423;DHT22;198;48.752;9.180;2023-04-24T08:09:57;11.60;99.90
423;DHT22;198;48.752;9.180;2023-04-24T08:12:22;11.60;99.90
423;DHT22;198;48.752;9.180;2023-04-24T08:14:48;11.60;99.90
423;DHT22;198;48.752;9.180;2023-04-24T08:17:13;11.70;99.90
423;DHT22;198;48.752;9.180;2023-04-24T08:19:40;11.60;99.90
423;DHT22;198;48.752;9.180;2023-04-24T08:22:09;11.40;99.90
423;DHT22;198;48.752;9.180;2023-04-24T08:24:35;11.30;99.90
423;DHT22;198;48.752;9.180;2023-04-24T08:27:01;11.30;99.90
423;DHT22;198;48.752;9.180;2023-04-24T08:29:27;11.50;99.90
423;DHT22;198;48.752;9.180;2023-04-24T08:31:52;11.50;99.90
423;DHT22;198;48.752;9.180;2023-04-24T08:34:20;11.50;99.90
423;DHT22;198;48.752;9.180;2023-04-24T08:36:46;11.50;99.90
423;DHT22;198;48.752;9.180;2023-04-24T08:39:11;11.60;99.90
423;DHT22;198;48.752;9.180;2023-04-24T08:41:37;11.60;99.90
423;DHT22;198;48.752;9.180;2023-04-24T08:44:03;11.60;99.90
423;DHT22;198;48.752;9.180;2023-04-24T08:46:30;11.90;99.90
423;DHT22;198;48.752;9.180;2023-04-24T08:48:56;12.30;99.90
423;DHT22;198;48.752;9.180;2023-04-24T08:51:22;12.50;98.60
423;DHT22;198;48.752;9.180;2023-04-24T08:53:48;12.70;97.90
423;DHT22;198;48.752;9.180;2023-04-24T08:56:14;12.70;96.10
423;DHT22;198;48.752;9.180;2023-04-24T08:58:41;12.60;97.20
423;DHT22;198;48.752;9.180;2023-04-24T09:01:07;12.40;95.90
423;DHT22;198;48.752;9.180;2023-04-24T09:03:33;12.80;97.30
423;DHT22;198;48.752;9.180;2023-04-24T09:06:00;13.10;95.50
423;DHT22;198;48.752;9.180;2023-04-24T09:08:28;13.10;93.50
423;DHT22;198;48.752;9.180;2023-04-24T09:10:54;12.90;93.50
423;DHT22;198;48.752;9.180;2023-04-24T09:13:20;12.80;95.20
423;DHT22;198;48.752;9.180;2023-04-24T09:15:45;12.70;96.30
423;DHT22;198;48.752;9.180;2023-04-24T09:18:11;12.90;95.90
423;DHT22;198;48.752;9.180;2023-04-24T09:20:57;12.80;95.80
423;DHT22;198;48.752;9.180;2023-04-24T09:23:23;12.70;95.40
423;DHT22;198;48.752;9.180;2023-04-24T09:25:54;12.60;95.80
423;DHT22;198;48.752;9.180;2023-04-24T09:28:46;12.70;95.80
423;DHT22;198;48.752;9.180;2023-04-24T09:31:15;12.80;95.90
423;DHT22;198;48.752;9.180;2023-04-24T09:33:57;12.90;97.40
423;DHT22;198;48.752;9.180;2023-04-24T09:36:33;13.20;97.60
423;DHT22;198;48.752;9.180;2023-04-24T09:39:00;13.90;98.00
423;DHT22;198;48.752;9.180;2023-04-24T09:41:27;14.50;95.40
423;DHT22;198;48.752;9.180;2023-04-24T09:43:54;14.90;93.10
423;DHT22;198;48.752;9.180;2023-04-24T09:46:20;15.40;91.30
423;DHT22;198;48.752;9.180;2023-04-24T09:48:47;16.30;88.80
423;DHT22;198;48.752;9.180;2023-04-24T09:51:13;16.50;80.30
423;DHT22;198;48.752;9.180;2023-04-24T09:53:45;16.40;77.60
423;DHT22;198;48.752;9.180;2023-04-24T09:56:11;15.80;73.80
423;DHT22;198;48.752;9.180;2023-04-24T09:58:38;14.60;72.00
423;DHT22;198;48.752;9.180;2023-04-24T10:01:04;14.10;77.90
423;DHT22;198;48.752;9.180;2023-04-24T10:03:31;13.70;76.90
423;DHT22;198;48.752;9.180;2023-04-24T10:06:00;13.40;81.40
423;DHT22;198;48.752;9.180;2023-04-24T10:08:26;13.30;79.70
423;DHT22;198;48.752;9.180;2023-04-24T10:10:58;13.20;81.00
423;DHT22;198;48.752;9.180;2023-04-24T10:13:25;13.20;80.00
423;DHT22;198;48.752;9.180;2023-04-24T10:15:51;13.10;76.00
423;DHT22;198;48.752;9.180;2023-04-24T10:18:17;14.10;78.20
423;DHT22;198;48.752;9.180;2023-04-24T10:20:43;16.70;71.90
423;DHT22;198;48.752;9.180;2023-04-24T10:23:08;18.40;60.50
423;DHT22;198;48.752;9.180;2023-04-24T10:25:35;19.90;54.90
423;DHT22;198;48.752;9.180;2023-04-24T10:28:01;20.30;50.60
423;DHT22;198;48.752;9.180;2023-04-24T10:30:29;20.40;47.90
423;DHT22;198;48.752;9.180;2023-04-24T10:32:55;20.30;47.40
423;DHT22;198;48.752;9.180;2023-04-24T10:35:22;20.90;47.70
423;DHT22;198;48.752;9.180;2023-04-24T10:37:54;20.30;46.50
423;DHT22;198;48.752;9.180;2023-04-24T10:40:32;19.40;46.50
423;DHT22;198;48.752;9.180;2023-04-24T10:43:05;18.60;48.10
423;DHT22;198;48.752;9.180;2023-04-24T10:45:36;17.40;49.90
423;DHT22;198;48.752;9.180;2023-04-24T10:48:04;16.60;51.90
423;DHT22;198;48.752;9.180;2023-04-24T10:50:48;15.70;53.50
423;DHT22;198;48.752;9.180;2023-04-24T10:53:21;14.80;54.40
423;DHT22;198;48.752;9.180;2023-04-24T10:55:50;14.10;56.20
423;DHT22;198;48.752;9.180;2023-04-24T10:58:21;13.60;57.90
423;DHT22;198;48.752;9.180;2023-04-24T11:00:58;13.20;59.70
423;DHT22;198;48.752;9.180;2023-04-24T11:05:52;12.90;64.30
423;DHT22;198;48.752;9.180;2023-04-24T11:08:44;12.70;64.40
423;DHT22;198;48.752;9.180;2023-04-24T11:11:17;12.30;66.50
423;DHT22;198;48.752;9.180;2023-04-24T11:16:34;11.70;70.50
423;DHT22;198;48.752;9.180;2023-04-24T11:19:05;11.50;71.60
423;DHT22;198;48.752;9.180;2023-04-24T11:35:04;14.10;73.60
423;DHT22;198;48.752;9.180;2023-04-24T11:37:39;16.10;66.40
423;DHT22;198;48.752;9.180;2023-04-24T11:40:07;18.00;59.30
423;DHT22;198;48.752;9.180;2023-04-24T11:42:43;18.40;54.90
423;DHT22;198;48.752;9.180;2023-04-24T11:45:11;17.60;54.90
423;DHT22;198;48.752;9.180;2023-04-24T11:47:37;16.80;56.70
423;DHT22;198;48.752;9.180;2023-04-24T11:50:04;15.50;56.10
423;DHT22;198;48.752;9.180;2023-04-24T11:52:31;14.70;59.10
423;DHT22;198;48.752;9.180;2023-04-24T11:54:56;14.10;61.20
423;DHT22;198;48.752;9.180;2023-04-24T11:57:24;13.40;63.20
423;DHT22;198;48.752;9.180;2023-04-24T11:59:53;13.30;65.20
423;DHT22;198;48.752;9.180;2023-04-24T12:02:23;13.30;65.60
423;DHT22;198;48.752;9.180;2023-04-24T12:04:49;14.00;65.40
423;DHT22;198;48.752;9.180;2023-04-24T12:07:15;15.30;61.90
423;DHT22;198;48.752;9.180;2023-04-24T12:09:45;17.50;60.80
423;DHT22;198;48.752;9.180;2023-04-24T12:12:12;19.30;54.10
423;DHT22;198;48.752;9.180;2023-04-24T12:14:47;18.60;50.90
423;DHT22;198;48.752;9.180;2023-04-24T12:17:13;16.90;52.80
423;DHT22;198;48.752;9.180;2023-04-24T12:19:45;15.80;55.60
423;DHT22;198;48.752;9.180;2023-04-24T12:22:11;15.00;58.00
423;DHT22;198;48.752;9.180;2023-04-24T12:24:55;14.10;59.70
423;DHT22;198;48.752;9.180;2023-04-24T12:27:22;13.80;63.40
423;DHT22;198;48.752;9.180;2023-04-24T12:29:58;13.50;64.10
423;DHT22;198;48.752;9.180;2023-04-24T12:32:24;13.30;66.10
423;DHT22;198;48.752;9.180;2023-04-24T12:34:51;13.30;65.30
423;DHT22;198;48.752;9.180;2023-04-24T12:37:17;13.40;65.50
423;DHT22;198;48.752;9.180;2023-04-24T12:40:03;13.40;64.00
423;DHT22;198;48.752;9.180;2023-04-24T12:42:31;13.40;63.50
423;DHT22;198;48.752;9.180;2023-04-24T12:45:04;13.40;63.50
423;DHT22;198;48.752;9.180;2023-04-24T12:47:31;13.70;63.00
423;DHT22;198;48.752;9.180;2023-04-24T12:49:56;13.80;63.70
423;DHT22;198;48.752;9.180;2023-04-24T12:52:23;13.70;63.70
423;DHT22;198;48.752;9.180;2023-04-24T12:54:56;13.70;63.20
423;DHT22;198;48.752;9.180;2023-04-24T12:57:24;13.40;64.80
423;DHT22;198;48.752;9.180;2023-04-24T12:59:49;13.10;67.30
423;DHT22;198;48.752;9.180;2023-04-24T13:02:16;12.80;69.20
423;DHT22;198;48.752;9.180;2023-04-24T13:04:46;12.50;70.70
423;DHT22;198;48.752;9.180;2023-04-24T13:07:13;12.20;73.30
423;DHT22;198;48.752;9.180;2023-04-24T13:09:39;11.90;79.30
423;DHT22;198;48.752;9.180;2023-04-24T13:12:04;11.70;81.50
423;DHT22;198;48.752;9.180;2023-04-24T13:14:31;11.50;89.00
423;DHT22;198;48.752;9.180;2023-04-24T13:16:56;11.60;91.00
423;DHT22;198;48.752;9.180;2023-04-24T13:19:24;11.80;92.70
423;DHT22;198;48.752;9.180;2023-04-24T13:21:51;12.00;91.00
423;DHT22;198;48.752;9.180;2023-04-24T13:24:16;12.90;88.50
423;DHT22;198;48.752;9.180;2023-04-24T13:26:42;13.50;86.40
423;DHT22;198;48.752;9.180;2023-04-24T13:29:08;14.10;84.40
423;DHT22;198;48.752;9.180;2023-04-24T13:31:34;15.30;77.40
423;DHT22;198;48.752;9.180;2023-04-24T13:34:00;15.60;73.30
423;DHT22;198;48.752;9.180;2023-04-24T13:36:26;15.80;72.90
423;DHT22;198;48.752;9.180;2023-04-24T13:38:51;15.70;73.40
423;DHT22;198;48.752;9.180;2023-04-24T13:41:17;15.20;72.90
423;DHT22;198;48.752;9.180;2023-04-24T13:43:42;14.70;71.90
423;DHT22;198;48.752;9.180;2023-04-24T13:46:08;14.00;72.00
423;DHT22;198;48.752;9.180;2023-04-24T13:48:34;13.60;77.00
423;DHT22;198;48.752;9.180;2023-04-24T13:51:00;13.10;81.80
423;DHT22;198;48.752;9.180;2023-04-24T13:53:25;12.60;83.50
423;DHT22;198;48.752;9.180;2023-04-24T13:55:51;12.10;88.40
423;DHT22;198;48.752;9.180;2023-04-24T13:58:16;11.80;93.00
423;DHT22;198;48.752;9.180;2023-04-24T14:00:42;11.40;96.90
423;DHT22;198;48.752;9.180;2023-04-24T14:03:07;11.40;99.90
423;DHT22;198;48.752;9.180;2023-04-24T14:05:33;11.60;99.90
423;DHT22;198;48.752;9.180;2023-04-24T14:07:58;12.90;99.90
423;DHT22;198;48.752;9.180;2023-04-24T14:10:24;14.40;96.50
423;DHT22;198;48.752;9.180;2023-04-24T14:12:51;15.40;90.00
423;DHT22;198;48.752;9.180;2023-04-24T14:15:16;15.50;87.80
423;DHT22;198;48.752;9.180;2023-04-24T14:17:43;15.70;82.70
423;DHT22;198;48.752;9.180;2023-04-24T14:20:08;15.50;82.30
423;DHT22;198;48.752;9.180;2023-04-24T14:22:34;15.10;85.30
423;DHT22;198;48.752;9.180;2023-04-24T14:24:59;14.40;85.90
423;DHT22;198;48.752;9.180;2023-04-24T14:27:26;13.70;89.50
423;DHT22;198;48.752;9.180;2023-04-24T14:29:52;13.00;91.90
423;DHT22;198;48.752;9.180;2023-04-24T14:32:17;12.30;95.30
423;DHT22;198;48.752;9.180;2023-04-24T14:34:43;11.70;99.90
423;DHT22;198;48.752;9.180;2023-04-24T14:37:08;11.70;99.90
423;DHT22;198;48.752;9.180;2023-04-24T14:39:34;12.50;99.90
423;DHT22;198;48.752;9.180;2023-04-24T14:42:00;14.00;99.90
423;DHT22;198;48.752;9.180;2023-04-24T14:44:26;16.10;99.90
423;DHT22;198;48.752;9.180;2023-04-24T14:46:52;16.80;84.80
423;DHT22;198;48.752;9.180;2023-04-24T14:49:18;17.50;82.00
423;DHT22;198;48.752;9.180;2023-04-24T14:51:43;16.80;74.20
423;DHT22;198;48.752;9.180;2023-04-24T14:54:09;15.60;77.80
423;DHT22;198;48.752;9.180;2023-04-24T14:56:35;15.10;83.00
423;DHT22;198;48.752;9.180;2023-04-24T14:59:00;14.70;84.20
423;DHT22;198;48.752;9.180;2023-04-24T15:01:26;14.60;86.60
423;DHT22;198;48.752;9.180;2023-04-24T15:03:51;14.80;85.80
423;DHT22;198;48.752;9.180;2023-04-24T15:06:17;15.70;81.70
423;DHT22;198;48.752;9.180;2023-04-24T15:08:42;16.20;73.10
423;DHT22;198;48.752;9.180;2023-04-24T15:11:09;15.90;75.40
423;DHT22;198;48.752;9.180;2023-04-24T15:13:35;15.00;75.10
423;DHT22;198;48.752;9.180;2023-04-24T15:16:00;14.40;77.10
423;DHT22;198;48.752;9.180;2023-04-24T15:18:26;14.10;77.30
423;DHT22;198;48.752;9.180;2023-04-24T15:20:53;13.70;81.80
423;DHT22;198;48.752;9.180;2023-04-24T15:23:18;13.50;83.40
423;DHT22;198;48.752;9.180;2023-04-24T15:25:44;13.10;84.30
423;DHT22;198;48.752;9.180;2023-04-24T15:28:09;12.90;86.20
423;DHT22;198;48.752;9.180;2023-04-24T15:30:35;12.70;88.50
423;DHT22;198;48.752;9.180;2023-04-24T15:33:01;12.40;87.90
423;DHT22;198;48.752;9.180;2023-04-24T15:35:27;12.30;89.40
423;DHT22;198;48.752;9.180;2023-04-24T15:37:52;12.20;87.80
423;DHT22;198;48.752;9.180;2023-04-24T15:40:18;12.20;90.60
423;DHT22;198;48.752;9.180;2023-04-24T15:42:44;12.10;91.70
423;DHT22;198;48.752;9.180;2023-04-24T15:45:10;12.00;99.50
423;DHT22;198;48.752;9.180;2023-04-24T15:47:37;11.70;99.90
423;DHT22;198;48.752;9.180;2023-04-24T15:50:03;11.50;99.90
423;DHT22;198;48.752;9.180;2023-04-24T15:52:29;11.30;99.90
423;DHT22;198;48.752;9.180;2023-04-24T15:54:54;11.00;99.90
423;DHT22;198;48.752;9.180;2023-04-24T15:57:20;11.00;99.90
423;DHT22;198;48.752;9.180;2023-04-24T15:59:46;11.00;99.90
423;DHT22;198;48.752;9.180;2023-04-24T16:02:13;11.00;99.90
423;DHT22;198;48.752;9.180;2023-04-24T16:04:49;11.10;99.90
423;DHT22;198;48.752;9.180;2023-04-24T16:07:15;11.90;99.90
423;DHT22;198;48.752;9.180;2023-04-24T16:09:42;13.10;99.90
423;DHT22;198;48.752;9.180;2023-04-24T16:12:08;14.30;99.90
423;DHT22;198;48.752;9.180;2023-04-24T16:14:37;15.10;97.50
423;DHT22;198;48.752;9.180;2023-04-24T16:17:03;15.00;95.20
423;DHT22;198;48.752;9.180;2023-04-24T16:19:29;14.70;94.50
423;DHT22;198;48.752;9.180;2023-04-24T16:21:55;14.70;93.90
423;DHT22;198;48.752;9.180;2023-04-24T16:24:22;14.40;93.10
423;DHT22;198;48.752;9.180;2023-04-24T16:26:49;14.00;92.50
423;DHT22;198;48.752;9.180;2023-04-24T16:29:15;13.60;92.60
423;DHT22;198;48.752;9.180;2023-04-24T16:31:41;13.30;94.20
423;DHT22;198;48.752;9.180;2023-04-24T16:34:06;12.80;94.90
423;DHT22;198;48.752;9.180;2023-04-24T16:36:32;12.60;96.10
423;DHT22;198;48.752;9.180;2023-04-24T16:38:58;12.40;97.70
423;DHT22;198;48.752;9.180;2023-04-24T16:41:26;12.30;97.70
423;DHT22;198;48.752;9.180;2023-04-24T16:43:51;12.30;98.20
423;DHT22;198;48.752;9.180;2023-04-24T16:46:18;12.30;98.50
423;DHT22;198;48.752;9.180;2023-04-24T16:48:43;12.20;99.00
423;DHT22;198;48.752;9.180;2023-04-24T16:51:09;12.20;98.60